Mountain Grove, Missouri
Current Conditions -  °F | °C
As of 3:53 PM on Friday 24 Oct 2014 (Local Time) from KUNO Reporting Station
Scattered Clouds Scattered Clouds  
Wind Chill: 71°   Ceiling: Unl
Heat Index: 71°   Visibility: 10mi
Dew Point: 57°   Wind: 5mph
Humidity: 61%   Direction: 220°SW
Pressure: 30.08"   Gusts: NA
Location:  37.13°N, 92.26°W
Report Text: KUNO 242053Z AUTO 22004KT 10SM FEW039 SCT046 22/14 A3008 RMK AO2 SLP180 T02170139 56017
Loading
Personal Weather Stations






























Interactive Weather Map
Tropical Storm Tracking
New forecast layout! Learn more

10-Day Weather Forecast

Advertisements
Track Severe Weather on mobile